sensor_id;sensor_type;location;lat;lon;timestamp;temperature;humidity
9971;DHT22;5026;51.494;11.974;2024-03-23T00:53:18;10.00;99.90
9971;DHT22;5026;51.494;11.974;2024-03-23T00:55:44;10.00;99.90
9971;DHT22;5026;51.494;11.974;2024-03-23T00:58:11;9.90;99.90
9971;DHT22;5026;51.494;11.974;2024-03-23T01:00:37;9.80;99.90
9971;DHT22;5026;51.494;11.974;2024-03-23T01:03:04;9.90;99.90
9971;DHT22;5026;51.494;11.974;2024-03-23T01:05:31;9.80;99.90
9971;DHT22;5026;51.494;11.974;2024-03-23T01:07:59;9.70;99.90
9971;DHT22;5026;51.494;11.974;2024-03-23T01:10:26;9.70;99.90
9971;DHT22;5026;51.494;11.974;2024-03-23T01:12:53;9.80;99.90
9971;DHT22;5026;51.494;11.974;2024-03-23T01:15:20;9.80;99.90
9971;DHT22;5026;51.494;11.974;2024-03-23T01:17:47;9.70;99.90
9971;DHT22;5026;51.494;11.974;2024-03-23T01:20:14;9.60;99.90
9971;DHT22;5026;51.494;11.974;2024-03-23T01:22:41;9.50;99.90
9971;DHT22;5026;51.494;11.974;2024-03-23T01:25:08;9.40;99.90
9971;DHT22;5026;51.494;11.974;2024-03-23T01:27:36;9.30;99.90
9971;DHT22;5026;51.494;11.974;2024-03-23T01:30:02;9.30;99.90
9971;DHT22;5026;51.494;11.974;2024-03-23T01:32:29;9.40;99.90
9971;DHT22;5026;51.494;11.974;2024-03-23T01:34:55;9.40;99.90
9971;DHT22;5026;51.494;11.974;2024-03-23T01:37:22;9.40;99.90
9971;DHT22;5026;51.494;11.974;2024-03-23T01:39:48;9.40;99.90
9971;DHT22;5026;51.494;11.974;2024-03-23T01:42:14;9.40;99.90
9971;DHT22;5026;51.494;11.974;2024-03-23T01:44:42;9.40;99.90
9971;DHT22;5026;51.494;11.974;2024-03-23T01:47:09;9.40;99.90
9971;DHT22;5026;51.494;11.974;2024-03-23T01:49:35;9.30;99.90
9971;DHT22;5026;51.494;11.974;2024-03-23T01:52:02;9.20;99.90
9971;DHT22;5026;51.494;11.974;2024-03-23T01:54:29;9.20;99.90
9971;DHT22;5026;51.494;11.974;2024-03-23T01:56:57;9.20;99.90
9971;DHT22;5026;51.494;11.974;2024-03-23T01:59:23;9.20;99.90
9971;DHT22;5026;51.494;11.974;2024-03-23T02:01:54;9.30;99.90
9971;DHT22;5026;51.494;11.974;2024-03-23T02:04:20;9.40;99.90
9971;DHT22;5026;51.494;11.974;2024-03-23T02:06:47;9.40;99.90
9971;DHT22;5026;51.494;11.974;2024-03-23T02:09:14;9.30;99.90
9971;DHT22;5026;51.494;11.974;2024-03-23T02:11:41;9.30;99.90
9971;DHT22;5026;51.494;11.974;2024-03-23T02:14:07;9.40;99.90
9971;DHT22;5026;51.494;11.974;2024-03-23T02:16:34;9.10;99.90
9971;DHT22;5026;51.494;11.974;2024-03-23T02:19:01;9.10;99.90
9971;DHT22;5026;51.494;11.974;2024-03-23T02:21:28;9.10;99.90
9971;DHT22;5026;51.494;11.974;2024-03-23T02:23:59;9.10;99.90
9971;DHT22;5026;51.494;11.974;2024-03-23T02:26:25;9.20;99.90
9971;DHT22;5026;51.494;11.974;2024-03-23T02:28:51;9.20;99.90
9971;DHT22;5026;51.494;11.974;2024-03-23T02:31:18;9.20;99.90
9971;DHT22;5026;51.494;11.974;2024-03-23T02:33:44;9.20;99.90
9971;DHT22;5026;51.494;11.974;2024-03-23T02:36:11;9.50;99.90
9971;DHT22;5026;51.494;11.974;2024-03-23T02:38:37;9.30;99.90
9971;DHT22;5026;51.494;11.974;2024-03-23T02:41:05;9.40;99.90
9971;DHT22;5026;51.494;11.974;2024-03-23T02:43:32;9.50;99.90
9971;DHT22;5026;51.494;11.974;2024-03-23T02:45:59;9.50;99.90
9971;DHT22;5026;51.494;11.974;2024-03-23T02:48:26;9.40;99.90
9971;DHT22;5026;51.494;11.974;2024-03-23T02:50:53;9.40;99.90
9971;DHT22;5026;51.494;11.974;2024-03-23T02:53:19;9.30;99.90
9971;DHT22;5026;51.494;11.974;2024-03-23T02:55:46;9.20;99.90
9971;DHT22;5026;51.494;11.974;2024-03-23T02:58:13;9.70;99.90
9971;DHT22;5026;51.494;11.974;2024-03-23T03:00:41;9.00;99.90
9971;DHT22;5026;51.494;11.974;2024-03-23T03:03:06;9.00;99.90
9971;DHT22;5026;51.494;11.974;2024-03-23T03:05:34;9.00;99.90
9971;DHT22;5026;51.494;11.974;2024-03-23T03:08:00;9.00;99.90
9971;DHT22;5026;51.494;11.974;2024-03-23T03:10:27;9.00;99.90
9971;DHT22;5026;51.494;11.974;2024-03-23T03:12:53;9.00;99.90
9971;DHT22;5026;51.494;11.974;2024-03-23T03:15:21;9.10;99.90
9971;DHT22;5026;51.494;11.974;2024-03-23T03:17:47;9.20;99.90
9971;DHT22;5026;51.494;11.974;2024-03-23T03:20:14;9.20;99.90
9971;DHT22;5026;51.494;11.974;2024-03-23T03:22:41;9.10;99.90
9971;DHT22;5026;51.494;11.974;2024-03-23T03:25:08;9.00;99.90
9971;DHT22;5026;51.494;11.974;2024-03-23T03:27:34;9.00;99.90
9971;DHT22;5026;51.494;11.974;2024-03-23T03:30:01;8.90;99.90
9971;DHT22;5026;51.494;11.974;2024-03-23T03:32:30;8.90;99.90
9971;DHT22;5026;51.494;11.974;2024-03-23T03:34:57;8.90;99.90
9971;DHT22;5026;51.494;11.974;2024-03-23T03:37:23;8.70;99.90
9971;DHT22;5026;51.494;11.974;2024-03-23T03:39:50;8.70;99.90
9971;DHT22;5026;51.494;11.974;2024-03-23T03:42:16;9.10;99.90
9971;DHT22;5026;51.494;11.974;2024-03-23T03:44:43;7.80;99.90
9971;DHT22;5026;51.494;11.974;2024-03-23T03:47:09;8.80;99.90
9971;DHT22;5026;51.494;11.974;2024-03-23T03:49:37;8.70;99.90
9971;DHT22;5026;51.494;11.974;2024-03-23T03:52:03;8.70;99.90
9971;DHT22;5026;51.494;11.974;2024-03-23T03:54:30;8.70;99.90
9971;DHT22;5026;51.494;11.974;2024-03-23T03:56:57;9.30;99.90
9971;DHT22;5026;51.494;11.974;2024-03-23T03:59:24;8.80;99.90
9971;DHT22;5026;51.494;11.974;2024-03-23T04:01:50;8.80;99.90
9971;DHT22;5026;51.494;11.974;2024-03-23T04:04:17;8.90;99.90
9971;DHT22;5026;51.494;11.974;2024-03-23T04:06:44;8.70;99.90
9971;DHT22;5026;51.494;11.974;2024-03-23T04:09:11;8.60;99.90
9971;DHT22;5026;51.494;11.974;2024-03-23T04:11:37;8.60;99.90
9971;DHT22;5026;51.494;11.974;2024-03-23T04:14:05;8.70;99.90
9971;DHT22;5026;51.494;11.974;2024-03-23T04:16:34;8.70;99.90
9971;DHT22;5026;51.494;11.974;2024-03-23T04:19:01;8.80;99.90
9971;DHT22;5026;51.494;11.974;2024-03-23T04:21:27;8.90;99.90
9971;DHT22;5026;51.494;11.974;2024-03-23T04:23:56;8.80;99.90
9971;DHT22;5026;51.494;11.974;2024-03-23T04:26:21;8.70;99.90
9971;DHT22;5026;51.494;11.974;2024-03-23T04:28:48;8.60;99.90
9971;DHT22;5026;51.494;11.974;2024-03-23T04:31:14;8.60;99.90
9971;DHT22;5026;51.494;11.974;2024-03-23T04:33:41;8.50;99.90
9971;DHT22;5026;51.494;11.974;2024-03-23T04:36:07;8.60;99.90
9971;DHT22;5026;51.494;11.974;2024-03-23T04:38:35;8.50;99.90
9971;DHT22;5026;51.494;11.974;2024-03-23T04:41:03;8.40;99.90
9971;DHT22;5026;51.494;11.974;2024-03-23T04:43:30;8.30;99.90
9971;DHT22;5026;51.494;11.974;2024-03-23T04:45:57;8.30;99.90
9971;DHT22;5026;51.494;11.974;2024-03-23T04:48:24;8.30;99.90
9971;DHT22;5026;51.494;11.974;2024-03-23T04:50:55;8.20;99.90
9971;DHT22;5026;51.494;11.974;2024-03-23T04:53:23;8.70;99.90
9971;DHT22;5026;51.494;11.974;2024-03-23T04:55:53;8.20;99.90
9971;DHT22;5026;51.494;11.974;2024-03-23T04:58:22;8.60;99.90
9971;DHT22;5026;51.494;11.974;2024-03-23T05:00:52;8.30;99.90
9971;DHT22;5026;51.494;11.974;2024-03-23T05:03:19;8.20;99.90
9971;DHT22;5026;51.494;11.974;2024-03-23T05:05:46;8.10;99.90
9971;DHT22;5026;51.494;11.974;2024-03-23T05:08:13;8.10;99.90
9971;DHT22;5026;51.494;11.974;2024-03-23T05:10:39;8.80;99.90
9971;DHT22;5026;51.494;11.974;2024-03-23T05:13:07;8.10;99.90
9971;DHT22;5026;51.494;11.974;2024-03-23T05:15:35;8.20;99.90
9971;DHT22;5026;51.494;11.974;2024-03-23T05:18:02;8.10;99.90
9971;DHT22;5026;51.494;11.974;2024-03-23T05:20:28;8.30;99.90
9971;DHT22;5026;51.494;11.974;2024-03-23T05:22:55;8.30;99.90
9971;DHT22;5026;51.494;11.974;2024-03-23T05:25:21;9.10;99.90
9971;DHT22;5026;51.494;11.974;2024-03-23T05:27:48;8.30;99.90
9971;DHT22;5026;51.494;11.974;2024-03-23T05:30:14;8.30;99.90
9971;DHT22;5026;51.494;11.974;2024-03-23T05:32:43;8.30;99.90
9971;DHT22;5026;51.494;11.974;2024-03-23T05:35:09;9.10;99.90
9971;DHT22;5026;51.494;11.974;2024-03-23T05:37:37;8.30;99.90
9971;DHT22;5026;51.494;11.974;2024-03-23T05:40:04;8.40;99.90
9971;DHT22;5026;51.494;11.974;2024-03-23T05:42:31;8.40;99.90
9971;DHT22;5026;51.494;11.974;2024-03-23T05:44:58;8.30;99.90
9971;DHT22;5026;51.494;11.974;2024-03-23T05:47:24;8.50;99.90
9971;DHT22;5026;51.494;11.974;2024-03-23T05:49:52;8.50;99.90
9971;DHT22;5026;51.494;11.974;2024-03-23T05:52:18;8.40;99.90
9971;DHT22;5026;51.494;11.974;2024-03-23T05:54:46;8.30;99.90
9971;DHT22;5026;51.494;11.974;2024-03-23T05:57:13;8.20;99.90
9971;DHT22;5026;51.494;11.974;2024-03-23T05:59:39;8.20;99.90
9971;DHT22;5026;51.494;11.974;2024-03-23T06:02:06;8.20;99.90
9971;DHT22;5026;51.494;11.974;2024-03-23T06:04:32;8.70;99.90
9971;DHT22;5026;51.494;11.974;2024-03-23T06:07:01;8.20;99.90
9971;DHT22;5026;51.494;11.974;2024-03-23T06:09:27;8.20;99.90
9971;DHT22;5026;51.494;11.974;2024-03-23T06:11:56;8.20;99.90
9971;DHT22;5026;51.494;11.974;2024-03-23T06:14:22;8.20;99.90
9971;DHT22;5026;51.494;11.974;2024-03-23T06:16:50;8.30;99.90
9971;DHT22;5026;51.494;11.974;2024-03-23T06:19:16;8.10;99.90
9971;DHT22;5026;51.494;11.974;2024-03-23T06:21:43;8.00;99.90
9971;DHT22;5026;51.494;11.974;2024-03-23T06:24:11;7.90;99.90
9971;DHT22;5026;51.494;11.974;2024-03-23T06:26:37;7.90;99.90
9971;DHT22;5026;51.494;11.974;2024-03-23T06:29:05;7.60;99.90
9971;DHT22;5026;51.494;11.974;2024-03-23T06:31:33;7.20;99.90
9971;DHT22;5026;51.494;11.974;2024-03-23T06:33:59;7.80;99.90
9971;DHT22;5026;51.494;11.974;2024-03-23T06:36:27;7.10;99.90
9971;DHT22;5026;51.494;11.974;2024-03-23T06:38:56;7.10;99.90
9971;DHT22;5026;51.494;11.974;2024-03-23T06:41:24;7.10;99.90
9971;DHT22;5026;51.494;11.974;2024-03-23T06:43:50;7.10;99.90
9971;DHT22;5026;51.494;11.974;2024-03-23T06:46:17;7.00;99.90
9971;DHT22;5026;51.494;11.974;2024-03-23T06:48:44;6.70;99.90
9971;DHT22;5026;51.494;11.974;2024-03-23T06:51:11;6.70;99.90
9971;DHT22;5026;51.494;11.974;2024-03-23T06:53:37;6.70;99.90
9971;DHT22;5026;51.494;11.974;2024-03-23T06:56:04;7.00;99.90
9971;DHT22;5026;51.494;11.974;2024-03-23T06:58:32;6.60;99.90
9971;DHT22;5026;51.494;11.974;2024-03-23T07:00:59;6.60;99.90
9971;DHT22;5026;51.494;11.974;2024-03-23T07:03:25;6.60;99.90
9971;DHT22;5026;51.494;11.974;2024-03-23T07:05:52;6.70;99.90
9971;DHT22;5026;51.494;11.974;2024-03-23T07:08:18;6.60;99.90
9971;DHT22;5026;51.494;11.974;2024-03-23T07:10:47;6.50;99.90
9971;DHT22;5026;51.494;11.974;2024-03-23T07:13:13;6.40;99.90
9971;DHT22;5026;51.494;11.974;2024-03-23T07:15:41;6.40;99.90
9971;DHT22;5026;51.494;11.974;2024-03-23T07:18:09;6.50;99.90
9971;DHT22;5026;51.494;11.974;2024-03-23T07:20:36;6.60;99.90
9971;DHT22;5026;51.494;11.974;2024-03-23T07:23:04;6.20;99.90
9971;DHT22;5026;51.494;11.974;2024-03-23T07:25:39;6.30;99.90
9971;DHT22;5026;51.494;11.974;2024-03-23T07:28:05;6.30;99.90
9971;DHT22;5026;51.494;11.974;2024-03-23T07:30:32;6.10;99.90
9971;DHT22;5026;51.494;11.974;2024-03-23T07:32:59;5.90;99.90
9971;DHT22;5026;51.494;11.974;2024-03-23T07:35:27;7.20;99.90
9971;DHT22;5026;51.494;11.974;2024-03-23T07:37:53;6.40;99.90
9971;DHT22;5026;51.494;11.974;2024-03-23T07:40:20;5.80;99.90
9971;DHT22;5026;51.494;11.974;2024-03-23T07:42:46;6.10;99.90
9971;DHT22;5026;51.494;11.974;2024-03-23T07:45:13;5.90;99.90
9971;DHT22;5026;51.494;11.974;2024-03-23T07:47:39;5.90;99.90
9971;DHT22;5026;51.494;11.974;2024-03-23T07:52:44;6.30;99.90
9971;DHT22;5026;51.494;11.974;2024-03-23T07:55:11;6.40;99.90
9971;DHT22;5026;51.494;11.974;2024-03-23T07:57:37;6.50;99.90
9971;DHT22;5026;51.494;11.974;2024-03-23T08:00:05;6.50;99.90
9971;DHT22;5026;51.494;11.974;2024-03-23T08:02:32;6.40;99.90
9971;DHT22;5026;51.494;11.974;2024-03-23T08:04:58;6.30;99.90
9971;DHT22;5026;51.494;11.974;2024-03-23T08:07:24;6.40;99.90
9971;DHT22;5026;51.494;11.974;2024-03-23T08:09:53;6.40;99.90
9971;DHT22;5026;51.494;11.974;2024-03-23T08:12:18;6.50;99.90
9971;DHT22;5026;51.494;11.974;2024-03-23T08:14:45;6.20;99.90
9971;DHT22;5026;51.494;11.974;2024-03-23T08:17:11;6.20;99.90
9971;DHT22;5026;51.494;11.974;2024-03-23T08:19:38;6.00;99.90
9971;DHT22;5026;51.494;11.974;2024-03-23T08:22:04;6.00;99.90
9971;DHT22;5026;51.494;11.974;2024-03-23T08:24:31;6.00;99.90
9971;DHT22;5026;51.494;11.974;2024-03-23T08:26:58;6.10;99.90
9971;DHT22;5026;51.494;11.974;2024-03-23T08:29:25;6.20;99.90
9971;DHT22;5026;51.494;11.974;2024-03-23T08:31:51;6.10;99.90
9971;DHT22;5026;51.494;11.974;2024-03-23T08:34:18;6.10;99.90
9971;DHT22;5026;51.494;11.974;2024-03-23T08:36:44;6.30;99.90
9971;DHT22;5026;51.494;11.974;2024-03-23T08:39:11;6.50;99.90
9971;DHT22;5026;51.494;11.974;2024-03-23T08:41:37;6.50;99.90
9971;DHT22;5026;51.494;11.974;2024-03-23T08:44:05;6.60;99.90
9971;DHT22;5026;51.494;11.974;2024-03-23T08:46:31;6.50;99.90
9971;DHT22;5026;51.494;11.974;2024-03-23T08:48:58;6.70;99.90
9971;DHT22;5026;51.494;11.974;2024-03-23T08:51:24;6.70;99.90
9971;DHT22;5026;51.494;11.974;2024-03-23T08:53:51;6.80;99.90
9971;DHT22;5026;51.494;11.974;2024-03-23T08:56:16;6.90;99.90
9971;DHT22;5026;51.494;11.974;2024-03-23T08:58:43;7.10;99.90
9971;DHT22;5026;51.494;11.974;2024-03-23T09:01:11;7.10;99.90
9971;DHT22;5026;51.494;11.974;2024-03-23T09:03:38;7.20;99.90
9971;DHT22;5026;51.494;11.974;2024-03-23T09:06:07;7.30;99.90
9971;DHT22;5026;51.494;11.974;2024-03-23T09:08:34;7.30;99.90
9971;DHT22;5026;51.494;11.974;2024-03-23T09:11:03;7.30;99.90
9971;DHT22;5026;51.494;11.974;2024-03-23T09:13:32;7.40;99.90
9971;DHT22;5026;51.494;11.974;2024-03-23T09:15:58;7.50;99.90
9971;DHT22;5026;51.494;11.974;2024-03-23T09:18:27;7.50;99.90
9971;DHT22;5026;51.494;11.974;2024-03-23T09:20:52;7.60;99.90
9971;DHT22;5026;51.494;11.974;2024-03-23T09:23:20;7.60;99.90
9971;DHT22;5026;51.494;11.974;2024-03-23T09:25:46;7.70;99.90
9971;DHT22;5026;51.494;11.974;2024-03-23T09:28:12;7.50;99.90
9971;DHT22;5026;51.494;11.974;2024-03-23T09:30:38;7.40;99.90
9971;DHT22;5026;51.494;11.974;2024-03-23T09:33:08;7.40;99.90
9971;DHT22;5026;51.494;11.974;2024-03-23T09:35:37;7.20;99.90
9971;DHT22;5026;51.494;11.974;2024-03-23T09:38:04;7.20;99.90
9971;DHT22;5026;51.494;11.974;2024-03-23T09:40:31;7.10;99.90
9971;DHT22;5026;51.494;11.974;2024-03-23T09:42:58;7.00;99.90
9971;DHT22;5026;51.494;11.974;2024-03-23T09:45:27;7.00;99.90
9971;DHT22;5026;51.494;11.974;2024-03-23T09:47:55;7.00;99.90
9971;DHT22;5026;51.494;11.974;2024-03-23T09:50:21;7.00;99.90
9971;DHT22;5026;51.494;11.974;2024-03-23T09:52:49;7.10;99.90
9971;DHT22;5026;51.494;11.974;2024-03-23T09:55:15;7.10;99.90
9971;DHT22;5026;51.494;11.974;2024-03-23T09:57:42;7.10;99.90
9971;DHT22;5026;51.494;11.974;2024-03-23T10:00:09;7.10;99.90
9971;DHT22;5026;51.494;11.974;2024-03-23T10:02:37;7.10;99.90
9971;DHT22;5026;51.494;11.974;2024-03-23T10:05:04;7.00;99.90
9971;DHT22;5026;51.494;11.974;2024-03-23T10:07:31;6.90;99.90
9971;DHT22;5026;51.494;11.974;2024-03-23T10:09:58;6.90;99.90
9971;DHT22;5026;51.494;11.974;2024-03-23T10:12:44;6.90;99.90
9971;DHT22;5026;51.494;11.974;2024-03-23T10:15:16;6.80;99.90
9971;DHT22;5026;51.494;11.974;2024-03-23T10:17:44;6.80;99.90
9971;DHT22;5026;51.494;11.974;2024-03-23T10:20:10;6.80;99.90
9971;DHT22;5026;51.494;11.974;2024-03-23T10:22:38;7.10;99.90
9971;DHT22;5026;51.494;11.974;2024-03-23T10:25:09;7.20;99.90
9971;DHT22;5026;51.494;11.974;2024-03-23T10:27:36;7.40;99.90
9971;DHT22;5026;51.494;11.974;2024-03-23T10:30:12;7.60;99.90
9971;DHT22;5026;51.494;11.974;2024-03-23T10:32:40;7.70;99.90
9971;DHT22;5026;51.494;11.974;2024-03-23T10:35:17;7.90;99.90
9971;DHT22;5026;51.494;11.974;2024-03-23T10:37:45;7.90;99.90
9971;DHT22;5026;51.494;11.974;2024-03-23T10:40:14;8.10;99.90
9971;DHT22;5026;51.494;11.974;2024-03-23T10:42:41;8.00;99.90
9971;DHT22;5026;51.494;11.974;2024-03-23T10:45:08;8.10;99.90
9971;DHT22;5026;51.494;11.974;2024-03-23T10:47:36;8.40;99.90
9971;DHT22;5026;51.494;11.974;2024-03-23T10:50:03;8.70;99.90
9971;DHT22;5026;51.494;11.974;2024-03-23T10:52:31;8.90;99.90
9971;DHT22;5026;51.494;11.974;2024-03-23T10:54:57;8.90;99.90
9971;DHT22;5026;51.494;11.974;2024-03-23T10:57:30;8.90;99.90
9971;DHT22;5026;51.494;11.974;2024-03-23T10:59:58;8.90;99.90
9971;DHT22;5026;51.494;11.974;2024-03-23T11:02:26;8.80;99.90
9971;DHT22;5026;51.494;11.974;2024-03-23T11:04:52;8.90;99.90
9971;DHT22;5026;51.494;11.974;2024-03-23T11:07:30;8.80;99.90
9971;DHT22;5026;51.494;11.974;2024-03-23T11:09:56;8.90;99.90
9971;DHT22;5026;51.494;11.974;2024-03-23T11:12:31;8.90;99.90
9971;DHT22;5026;51.494;11.974;2024-03-23T11:15:01;9.20;99.90
9971;DHT22;5026;51.494;11.974;2024-03-23T11:17:28;9.40;99.90
9971;DHT22;5026;51.494;11.974;2024-03-23T11:19:55;9.70;99.90
9971;DHT22;5026;51.494;11.974;2024-03-23T11:22:39;9.70;99.90
9971;DHT22;5026;51.494;11.974;2024-03-23T11:25:16;10.00;99.90
9971;DHT22;5026;51.494;11.974;2024-03-23T11:27:45;10.20;99.90
9971;DHT22;5026;51.494;11.974;2024-03-23T11:30:12;10.40;99.90
9971;DHT22;5026;51.494;11.974;2024-03-23T11:32:39;10.40;99.90
9971;DHT22;5026;51.494;11.974;2024-03-23T11:35:06;10.50;99.90
9971;DHT22;5026;51.494;11.974;2024-03-23T11:37:36;10.40;99.90
9971;DHT22;5026;51.494;11.974;2024-03-23T11:40:17;9.90;99.90
9971;DHT22;5026;51.494;11.974;2024-03-23T11:42:45;9.80;99.90
9971;DHT22;5026;51.494;11.974;2024-03-23T11:45:12;9.80;99.90
9971;DHT22;5026;51.494;11.974;2024-03-23T11:47:39;9.70;99.90
9971;DHT22;5026;51.494;11.974;2024-03-23T11:50:05;9.70;99.90
9971;DHT22;5026;51.494;11.974;2024-03-23T11:52:32;9.70;99.90
9971;DHT22;5026;51.494;11.974;2024-03-23T11:55:04;9.70;99.90
9971;DHT22;5026;51.494;11.974;2024-03-23T11:57:33;10.40;99.90
9971;DHT22;5026;51.494;11.974;2024-03-23T12:00:01;9.80;99.90
9971;DHT22;5026;51.494;11.974;2024-03-23T12:02:28;9.90;99.90
9971;DHT22;5026;51.494;11.974;2024-03-23T12:04:53;9.90;99.90
9971;DHT22;5026;51.494;11.974;2024-03-23T12:07:21;9.90;99.90
9971;DHT22;5026;51.494;11.974;2024-03-23T12:10:02;9.90;99.90
9971;DHT22;5026;51.494;11.974;2024-03-23T12:12:29;9.90;99.90
9971;DHT22;5026;51.494;11.974;2024-03-23T12:15:04;9.90;99.90
9971;DHT22;5026;51.494;11.974;2024-03-23T12:17:31;10.00;99.90
9971;DHT22;5026;51.494;11.974;2024-03-23T12:19:58;10.00;99.90
9971;DHT22;5026;51.494;11.974;2024-03-23T12:22:25;10.00;99.90
9971;DHT22;5026;51.494;11.974;2024-03-23T12:24:51;10.00;99.90
9971;DHT22;5026;51.494;11.974;2024-03-23T12:27:18;10.30;99.90
9971;DHT22;5026;51.494;11.974;2024-03-23T12:29:44;10.40;99.90
9971;DHT22;5026;51.494;11.974;2024-03-23T12:32:14;10.30;99.90
9971;DHT22;5026;51.494;11.974;2024-03-23T12:34:40;10.40;99.90
9971;DHT22;5026;51.494;11.974;2024-03-23T12:37:08;10.60;99.90
9971;DHT22;5026;51.494;11.974;2024-03-23T12:39:34;10.70;99.90
9971;DHT22;5026;51.494;11.974;2024-03-23T12:42:02;10.70;99.70
9971;DHT22;5026;51.494;11.974;2024-03-23T12:44:28;10.80;99.40
9971;DHT22;5026;51.494;11.974;2024-03-23T12:46:55;10.80;99.20
9971;DHT22;5026;51.494;11.974;2024-03-23T12:49:22;10.80;99.20
9971;DHT22;5026;51.494;11.974;2024-03-23T12:51:54;10.80;99.00
9971;DHT22;5026;51.494;11.974;2024-03-23T12:54:20;10.90;98.80
9971;DHT22;5026;51.494;11.974;2024-03-23T12:56:47;11.00;98.70
9971;DHT22;5026;51.494;11.974;2024-03-23T12:59:13;11.10;98.30
9971;DHT22;5026;51.494;11.974;2024-03-23T13:01:40;11.10;98.30
9971;DHT22;5026;51.494;11.974;2024-03-23T13:04:06;11.20;98.10
9971;DHT22;5026;51.494;11.974;2024-03-23T13:06:34;11.20;98.10
9971;DHT22;5026;51.494;11.974;2024-03-23T13:09:00;11.30;97.90
9971;DHT22;5026;51.494;11.974;2024-03-23T13:11:27;11.50;97.80
9971;DHT22;5026;51.494;11.974;2024-03-23T13:13:53;11.60;97.80
9971;DHT22;5026;51.494;11.974;2024-03-23T13:16:20;11.60;97.70
9971;DHT22;5026;51.494;11.974;2024-03-23T13:18:45;11.50;97.50
9971;DHT22;5026;51.494;11.974;2024-03-23T13:21:12;11.50;97.00
9971;DHT22;5026;51.494;11.974;2024-03-23T13:23:40;11.80;96.90
9971;DHT22;5026;51.494;11.974;2024-03-23T13:26:08;12.30;96.70
9971;DHT22;5026;51.494;11.974;2024-03-23T13:28:34;12.60;96.10
9971;DHT22;5026;51.494;11.974;2024-03-23T13:31:01;12.80;95.70
9971;DHT22;5026;51.494;11.974;2024-03-23T13:33:29;12.90;95.10
9971;DHT22;5026;51.494;11.974;2024-03-23T13:35:58;13.00;95.10
9971;DHT22;5026;51.494;11.974;2024-03-23T13:38:24;13.20;95.30
9971;DHT22;5026;51.494;11.974;2024-03-23T13:40:54;13.40;94.80
9971;DHT22;5026;51.494;11.974;2024-03-23T13:43:20;13.20;94.60
9971;DHT22;5026;51.494;11.974;2024-03-23T13:45:47;12.90;95.10
9971;DHT22;5026;51.494;11.974;2024-03-23T13:48:13;12.60;95.00
9971;DHT22;5026;51.494;11.974;2024-03-23T13:50:41;12.30;95.00
9971;DHT22;5026;51.494;11.974;2024-03-23T13:53:07;11.80;95.40
9971;DHT22;5026;51.494;11.974;2024-03-23T13:55:34;11.30;95.70
9971;DHT22;5026;51.494;11.974;2024-03-23T13:58:02;10.70;95.00
9971;DHT22;5026;51.494;11.974;2024-03-23T14:00:29;10.20;96.00
9971;DHT22;5026;51.494;11.974;2024-03-23T14:02:57;9.90;97.60
9971;DHT22;5026;51.494;11.974;2024-03-23T14:05:24;9.60;98.30
9971;DHT22;5026;51.494;11.974;2024-03-23T14:07:50;9.20;99.10
9971;DHT22;5026;51.494;11.974;2024-03-23T14:10:17;8.70;99.80
9971;DHT22;5026;51.494;11.974;2024-03-23T14:12:43;8.40;99.90
9971;DHT22;5026;51.494;11.974;2024-03-23T14:15:11;8.10;99.90
9971;DHT22;5026;51.494;11.974;2024-03-23T14:17:37;7.90;99.90
9971;DHT22;5026;51.494;11.974;2024-03-23T14:20:05;7.90;99.90
9971;DHT22;5026;51.494;11.974;2024-03-23T14:22:31;8.00;99.90
9971;DHT22;5026;51.494;11.974;2024-03-23T14:24:58;8.00;99.90
9971;DHT22;5026;51.494;11.974;2024-03-23T14:27:24;8.10;99.90
9971;DHT22;5026;51.494;11.974;2024-03-23T14:29:51;8.30;99.90
9971;DHT22;5026;51.494;11.974;2024-03-23T14:32:18;8.50;99.90
9971;DHT22;5026;51.494;11.974;2024-03-23T14:34:45;8.60;99.90
9971;DHT22;5026;51.494;11.974;2024-03-23T14:37:12;8.70;99.90
9971;DHT22;5026;51.494;11.974;2024-03-23T14:39:41;8.50;99.90
9971;DHT22;5026;51.494;11.974;2024-03-23T14:42:07;8.60;99.90
9971;DHT22;5026;51.494;11.974;2024-03-23T14:44:34;8.60;99.90
9971;DHT22;5026;51.494;11.974;2024-03-23T14:47:00;8.80;99.90
9971;DHT22;5026;51.494;11.974;2024-03-23T14:49:29;8.90;99.90
9971;DHT22;5026;51.494;11.974;2024-03-23T14:51:54;9.20;99.90
9971;DHT22;5026;51.494;11.974;2024-03-23T14:54:21;9.30;99.90
9971;DHT22;5026;51.494;11.974;2024-03-23T14:56:47;9.40;99.90
9971;DHT22;5026;51.494;11.974;2024-03-23T14:59:14;9.40;99.90
9971;DHT22;5026;51.494;11.974;2024-03-23T15:01:40;9.40;99.90
9971;DHT22;5026;51.494;11.974;2024-03-23T15:04:07;9.50;99.90
9971;DHT22;5026;51.494;11.974;2024-03-23T15:06:35;9.40;99.90
9971;DHT22;5026;51.494;11.974;2024-03-23T15:09:02;9.40;99.90
9971;DHT22;5026;51.494;11.974;2024-03-23T15:11:32;9.30;99.90
9971;DHT22;5026;51.494;11.974;2024-03-23T15:13:59;9.20;99.90
9971;DHT22;5026;51.494;11.974;2024-03-23T15:16:25;9.10;99.90
9971;DHT22;5026;51.494;11.974;2024-03-23T15:18:52;9.00;99.90
9971;DHT22;5026;51.494;11.974;2024-03-23T15:21:18;8.90;99.90
9971;DHT22;5026;51.494;11.974;2024-03-23T15:23:48;9.00;99.90
9971;DHT22;5026;51.494;11.974;2024-03-23T15:26:14;9.10;99.90
9971;DHT22;5026;51.494;11.974;2024-03-23T15:28:41;9.10;99.90
9971;DHT22;5026;51.494;11.974;2024-03-23T15:31:19;9.10;99.90
9971;DHT22;5026;51.494;11.974;2024-03-23T15:33:46;9.10;99.90
9971;DHT22;5026;51.494;11.974;2024-03-23T15:36:11;9.10;99.90
9971;DHT22;5026;51.494;11.974;2024-03-23T15:38:38;8.90;99.90
9971;DHT22;5026;51.494;11.974;2024-03-23T15:41:05;9.00;99.90
9971;DHT22;5026;51.494;11.974;2024-03-23T15:43:33;9.00;99.90
9971;DHT22;5026;51.494;11.974;2024-03-23T15:46:00;9.00;99.90
9971;DHT22;5026;51.494;11.974;2024-03-23T15:48:27;9.00;99.90
9971;DHT22;5026;51.494;11.974;2024-03-23T15:50:54;8.90;99.90
9971;DHT22;5026;51.494;11.974;2024-03-23T15:53:22;8.60;99.90
9971;DHT22;5026;51.494;11.974;2024-03-23T15:55:53;8.40;99.90
9971;DHT22;5026;51.494;11.974;2024-03-23T15:58:22;8.20;99.90
9971;DHT22;5026;51.494;11.974;2024-03-23T16:00:54;8.10;99.90
9971;DHT22;5026;51.494;11.974;2024-03-23T16:03:21;8.00;99.90
9971;DHT22;5026;51.494;11.974;2024-03-23T16:05:50;8.10;99.90
9971;DHT22;5026;51.494;11.974;2024-03-23T16:08:17;8.00;99.90
9971;DHT22;5026;51.494;11.974;2024-03-23T16:10:43;7.90;99.90
9971;DHT22;5026;51.494;11.974;2024-03-23T16:13:09;7.80;99.90
9971;DHT22;5026;51.494;11.974;2024-03-23T16:15:37;7.90;99.90
9971;DHT22;5026;51.494;11.974;2024-03-23T16:18:04;7.80;99.90
9971;DHT22;5026;51.494;11.974;2024-03-23T16:20:30;7.80;99.90
9971;DHT22;5026;51.494;11.974;2024-03-23T16:22:59;7.80;99.90
9971;DHT22;5026;51.494;11.974;2024-03-23T16:25:25;7.80;99.90
9971;DHT22;5026;51.494;11.974;2024-03-23T16:27:52;7.80;99.90
9971;DHT22;5026;51.494;11.974;2024-03-23T16:30:18;7.90;99.90
9971;DHT22;5026;51.494;11.974;2024-03-23T16:32:47;8.00;99.90
9971;DHT22;5026;51.494;11.974;2024-03-23T16:35:13;8.10;99.90
9971;DHT22;5026;51.494;11.974;2024-03-23T16:37:40;8.20;99.90
9971;DHT22;5026;51.494;11.974;2024-03-23T16:40:07;8.20;99.90
9971;DHT22;5026;51.494;11.974;2024-03-23T16:42:35;8.20;99.90
9971;DHT22;5026;51.494;11.974;2024-03-23T16:45:01;8.40;99.90
9971;DHT22;5026;51.494;11.974;2024-03-23T16:47:28;8.40;99.90
9971;DHT22;5026;51.494;11.974;2024-03-23T16:49:56;8.30;99.90
9971;DHT22;5026;51.494;11.974;2024-03-23T16:52:24;8.10;99.90
9971;DHT22;5026;51.494;11.974;2024-03-23T16:54:50;7.90;99.90